sensor_id;sensor_type;location;lat;lon;timestamp;pressure;altitude;pressure_sealevel;temperature;humidity
48718;BME280;34521;33.042;-96.586;2023-09-18T00:00:28;99717.94;;;24.07;31.24
48718;BME280;34521;33.042;-96.586;2023-09-18T00:02:54;99714.33;;;25.21;29.71
48718;BME280;34521;33.042;-96.586;2023-09-18T00:05:19;99716.19;;;25.35;29.59
48718;BME280;34521;33.042;-96.586;2023-09-18T00:07:44;99717.41;;;25.28;29.79
48718;BME280;34521;33.042;-96.586;2023-09-18T00:10:10;99721.33;;;23.89;31.95
48718;BME280;34521;33.042;-96.586;2023-09-18T00:12:34;99721.79;;;23.90;31.41
48718;BME280;34521;33.042;-96.586;2023-09-18T00:14:59;99720.79;;;23.89;31.09
48718;BME280;34521;33.042;-96.586;2023-09-18T00:17:24;99719.61;;;23.70;30.59
48718;BME280;34521;33.042;-96.586;2023-09-18T00:19:49;99720.44;;;23.75;30.11
48718;BME280;34521;33.042;-96.586;2023-09-18T00:22:14;99717.67;;;23.64;29.88
48718;BME280;34521;33.042;-96.586;2023-09-18T00:24:39;99718.56;;;24.00;29.29
48718;BME280;34521;33.042;-96.586;2023-09-18T00:27:05;99718.90;;;23.11;29.71
48718;BME280;34521;33.042;-96.586;2023-09-18T00:29:29;99715.87;;;23.87;29.11
48718;BME280;34521;33.042;-96.586;2023-09-18T00:31:54;99715.37;;;23.15;29.40
48718;BME280;34521;33.042;-96.586;2023-09-18T00:34:19;99717.93;;;23.36;29.81
48718;BME280;34521;33.042;-96.586;2023-09-18T00:36:44;99714.27;;;24.91;27.92
48718;BME280;34521;33.042;-96.586;2023-09-18T00:39:09;99715.28;;;24.93;28.22
48718;BME280;34521;33.042;-96.586;2023-09-18T00:41:36;99713.01;;;22.89;30.84
48718;BME280;34521;33.042;-96.586;2023-09-18T00:44:00;99716.87;;;23.61;29.80
48718;BME280;34521;33.042;-96.586;2023-09-18T00:46:25;99716.36;;;23.75;29.44
48718;BME280;34521;33.042;-96.586;2023-09-18T00:48:50;99715.73;;;23.61;28.96
48718;BME280;34521;33.042;-96.586;2023-09-18T00:51:15;99717.87;;;23.18;29.05
48718;BME280;34521;33.042;-96.586;2023-09-18T00:53:44;99719.93;;;23.06;29.46
48718;BME280;34521;33.042;-96.586;2023-09-18T00:56:05;99719.81;;;24.56;27.93
48718;BME280;34521;33.042;-96.586;2023-09-18T00:58:30;99721.94;;;24.42;28.11
48718;BME280;34521;33.042;-96.586;2023-09-18T01:00:56;99723.83;;;22.87;30.34
48718;BME280;34521;33.042;-96.586;2023-09-18T01:03:21;99725.74;;;23.08;29.85
48718;BME280;34521;33.042;-96.586;2023-09-18T01:05:45;99728.63;;;23.39;29.11
48718;BME280;34521;33.042;-96.586;2023-09-18T01:08:10;99729.15;;;23.69;28.42
48718;BME280;34521;33.042;-96.586;2023-09-18T01:10:43;99731.15;;;23.00;28.76
48718;BME280;34521;33.042;-96.586;2023-09-18T01:13:04;99732.07;;;22.77;29.61
48718;BME280;34521;33.042;-96.586;2023-09-18T01:15:30;99736.59;;;24.84;27.63
48718;BME280;34521;33.042;-96.586;2023-09-18T01:17:50;99738.11;;;24.90;27.43
48718;BME280;34521;33.042;-96.586;2023-09-18T01:20:15;99742.28;;;24.91;27.25
48718;BME280;34521;33.042;-96.586;2023-09-18T01:22:40;99741.21;;;22.85;29.75
48718;BME280;34521;33.042;-96.586;2023-09-18T01:25:07;99741.26;;;23.12;29.40
48718;BME280;34521;33.042;-96.586;2023-09-18T01:27:30;99743.18;;;23.17;28.90
48718;BME280;34521;33.042;-96.586;2023-09-18T01:29:56;99744.04;;;22.97;28.64
48718;BME280;34521;33.042;-96.586;2023-09-18T01:32:23;99744.98;;;23.29;29.10
48718;BME280;34521;33.042;-96.586;2023-09-18T01:34:48;99750.13;;;24.87;27.45
48718;BME280;34521;33.042;-96.586;2023-09-18T01:37:12;99753.29;;;24.37;27.61
48718;BME280;34521;33.042;-96.586;2023-09-18T01:39:36;99753.57;;;24.92;27.03
48718;BME280;34521;33.042;-96.586;2023-09-18T01:42:02;99755.26;;;23.07;29.76
48718;BME280;34521;33.042;-96.586;2023-09-18T01:44:26;99762.66;;;22.69;29.62
48718;BME280;34521;33.042;-96.586;2023-09-18T01:46:51;99762.09;;;22.83;29.14
48718;BME280;34521;33.042;-96.586;2023-09-18T01:49:19;99766.42;;;22.46;29.03
48718;BME280;34521;33.042;-96.586;2023-09-18T01:51:41;99770.09;;;22.68;29.40
48718;BME280;34521;33.042;-96.586;2023-09-18T01:54:06;99770.02;;;23.91;28.18
48718;BME280;34521;33.042;-96.586;2023-09-18T01:56:31;99774.00;;;24.11;27.77
48718;BME280;34521;33.042;-96.586;2023-09-18T01:58:56;99777.95;;;23.79;28.47
48718;BME280;34521;33.042;-96.586;2023-09-18T02:01:21;99783.72;;;22.25;30.26
48718;BME280;34521;33.042;-96.586;2023-09-18T02:03:46;99785.69;;;22.82;29.71
48718;BME280;34521;33.042;-96.586;2023-09-18T02:06:11;99790.79;;;22.85;28.77
48718;BME280;34521;33.042;-96.586;2023-09-18T02:08:36;99792.84;;;22.12;29.23
48718;BME280;34521;33.042;-96.586;2023-09-18T02:11:01;99790.98;;;23.13;28.86
48718;BME280;34521;33.042;-96.586;2023-09-18T02:13:26;99795.37;;;24.53;27.42
48718;BME280;34521;33.042;-96.586;2023-09-18T02:15:51;99799.74;;;24.70;27.00
48718;BME280;34521;33.042;-96.586;2023-09-18T02:18:16;99802.55;;;24.36;27.66
48718;BME280;34521;33.042;-96.586;2023-09-18T02:20:41;99802.33;;;22.41;29.86
48718;BME280;34521;33.042;-96.586;2023-09-18T02:23:06;99803.26;;;22.80;29.05
48718;BME280;34521;33.042;-96.586;2023-09-18T02:25:31;99805.21;;;22.60;28.87
48718;BME280;34521;33.042;-96.586;2023-09-18T02:27:56;99805.59;;;22.68;28.52
48718;BME280;34521;33.042;-96.586;2023-09-18T02:30:21;99808.30;;;23.45;28.40
48718;BME280;34521;33.042;-96.586;2023-09-18T02:32:47;99812.78;;;24.67;26.98
48718;BME280;34521;33.042;-96.586;2023-09-18T02:35:12;99815.85;;;24.25;27.29
48718;BME280;34521;33.042;-96.586;2023-09-18T02:37:36;99817.65;;;24.01;27.70
48718;BME280;34521;33.042;-96.586;2023-09-18T02:40:02;99818.44;;;22.55;29.53
48718;BME280;34521;33.042;-96.586;2023-09-18T02:42:27;99823.16;;;22.24;29.81
48718;BME280;34521;33.042;-96.586;2023-09-18T02:44:51;99823.86;;;22.47;29.11
48718;BME280;34521;33.042;-96.586;2023-09-18T02:47:17;99825.52;;;22.26;28.88
48718;BME280;34521;33.042;-96.586;2023-09-18T02:49:42;99824.98;;;23.26;28.53
48718;BME280;34521;33.042;-96.586;2023-09-18T02:52:07;99826.54;;;24.26;27.35
48718;BME280;34521;33.042;-96.586;2023-09-18T02:54:32;99828.17;;;24.84;26.77
48718;BME280;34521;33.042;-96.586;2023-09-18T02:56:57;99824.92;;;24.38;27.43
48718;BME280;34521;33.042;-96.586;2023-09-18T02:59:22;99824.82;;;23.38;28.09
48718;BME280;34521;33.042;-96.586;2023-09-18T03:01:47;99826.85;;;21.78;30.11
48718;BME280;34521;33.042;-96.586;2023-09-18T03:04:12;99824.13;;;22.59;29.28
48718;BME280;34521;33.042;-96.586;2023-09-18T03:06:39;99823.40;;;22.11;29.25
48718;BME280;34521;33.042;-96.586;2023-09-18T03:09:02;99820.87;;;22.61;28.96
48718;BME280;34521;33.042;-96.586;2023-09-18T03:11:27;99821.66;;;24.05;27.44
48718;BME280;34521;33.042;-96.586;2023-09-18T03:13:52;99825.27;;;24.48;27.08
48718;BME280;34521;33.042;-96.586;2023-09-18T03:16:17;99824.22;;;23.72;27.95
48718;BME280;34521;33.042;-96.586;2023-09-18T03:18:42;99819.99;;;23.54;28.30
48718;BME280;34521;33.042;-96.586;2023-09-18T03:21:08;99821.91;;;22.51;29.29
48718;BME280;34521;33.042;-96.586;2023-09-18T03:23:33;99822.39;;;21.86;29.94
48718;BME280;34521;33.042;-96.586;2023-09-18T03:25:57;99821.47;;;22.19;28.99
48718;BME280;34521;33.042;-96.586;2023-09-18T03:28:22;99818.27;;;21.81;29.54
48718;BME280;34521;33.042;-96.586;2023-09-18T03:30:48;99815.48;;;23.26;28.12
48718;BME280;34521;33.042;-96.586;2023-09-18T03:33:13;99812.71;;;24.27;27.15
48718;BME280;34521;33.042;-96.586;2023-09-18T03:35:46;99814.70;;;24.85;26.66
48718;BME280;34521;33.042;-96.586;2023-09-18T03:38:03;99814.52;;;23.55;27.82
48718;BME280;34521;33.042;-96.586;2023-09-18T03:40:28;99812.11;;;23.55;27.96
48718;BME280;34521;33.042;-96.586;2023-09-18T03:42:53;99811.78;;;22.72;28.95
48718;BME280;34521;33.042;-96.586;2023-09-18T03:45:18;99814.46;;;22.09;29.56
48718;BME280;34521;33.042;-96.586;2023-09-18T03:47:44;99813.19;;;22.34;28.86
48718;BME280;34521;33.042;-96.586;2023-09-18T03:50:10;99817.03;;;21.95;29.26
48718;BME280;34521;33.042;-96.586;2023-09-18T03:52:35;99812.82;;;23.54;27.76
48718;BME280;34521;33.042;-96.586;2023-09-18T03:55:00;99814.66;;;23.58;27.74
48718;BME280;34521;33.042;-96.586;2023-09-18T03:57:25;99814.64;;;23.81;27.66
48718;BME280;34521;33.042;-96.586;2023-09-18T03:59:50;99816.16;;;23.50;28.07
48718;BME280;34521;33.042;-96.586;2023-09-18T04:02:14;99820.08;;;24.26;27.32
48718;BME280;34521;33.042;-96.586;2023-09-18T04:04:40;99823.06;;;23.80;27.66
48718;BME280;34521;33.042;-96.586;2023-09-18T04:07:07;99829.50;;;21.85;30.05
48718;BME280;34521;33.042;-96.586;2023-09-18T04:09:30;99833.02;;;21.54;30.07
48718;BME280;34521;33.042;-96.586;2023-09-18T04:11:55;99833.16;;;21.99;28.82
48718;BME280;34521;33.042;-96.586;2023-09-18T04:14:20;99833.08;;;22.24;29.35
48718;BME280;34521;33.042;-96.586;2023-09-18T04:16:45;99831.43;;;24.02;27.24
48718;BME280;34521;33.042;-96.586;2023-09-18T04:19:10;99829.35;;;24.34;26.95
48718;BME280;34521;33.042;-96.586;2023-09-18T04:21:35;99830.35;;;23.89;27.43
48718;BME280;34521;33.042;-96.586;2023-09-18T04:24:00;99829.76;;;23.30;27.95
48718;BME280;34521;33.042;-96.586;2023-09-18T04:26:25;99832.43;;;24.51;26.87
48718;BME280;34521;33.042;-96.586;2023-09-18T04:28:50;99831.76;;;24.31;27.09
48718;BME280;34521;33.042;-96.586;2023-09-18T04:31:15;99836.81;;;21.58;29.86
48718;BME280;34521;33.042;-96.586;2023-09-18T04:33:40;99839.01;;;22.31;29.16
48718;BME280;34521;33.042;-96.586;2023-09-18T04:36:06;99835.69;;;21.85;29.51
48718;BME280;34521;33.042;-96.586;2023-09-18T04:38:31;99835.28;;;23.31;27.96
48718;BME280;34521;33.042;-96.586;2023-09-18T04:41:00;99829.70;;;24.18;27.03
48718;BME280;34521;33.042;-96.586;2023-09-18T04:43:21;99827.81;;;23.89;27.38
48718;BME280;34521;33.042;-96.586;2023-09-18T04:45:46;99829.40;;;24.43;26.92
48718;BME280;34521;33.042;-96.586;2023-09-18T04:48:10;99829.89;;;24.84;26.62
48718;BME280;34521;33.042;-96.586;2023-09-18T04:50:36;99832.06;;;24.22;27.04
48718;BME280;34521;33.042;-96.586;2023-09-18T04:53:01;99833.60;;;24.51;26.86
48718;BME280;34521;33.042;-96.586;2023-09-18T04:55:26;99834.99;;;22.62;28.57
48718;BME280;34521;33.042;-96.586;2023-09-18T04:57:51;99837.24;;;21.36;30.36
48718;BME280;34521;33.042;-96.586;2023-09-18T05:00:16;99834.59;;;21.74;29.33
48718;BME280;34521;33.042;-96.586;2023-09-18T05:02:41;99835.76;;;21.98;29.71
48718;BME280;34521;33.042;-96.586;2023-09-18T05:05:07;99829.36;;;23.70;27.70
48718;BME280;34521;33.042;-96.586;2023-09-18T05:07:31;99828.38;;;23.49;27.63
48718;BME280;34521;33.042;-96.586;2023-09-18T05:09:56;99828.44;;;24.22;27.00
48718;BME280;34521;33.042;-96.586;2023-09-18T05:12:21;99827.94;;;24.05;27.24
48718;BME280;34521;33.042;-96.586;2023-09-18T05:14:46;99824.98;;;24.04;27.35
48718;BME280;34521;33.042;-96.586;2023-09-18T05:17:13;99826.68;;;24.24;26.96
48718;BME280;34521;33.042;-96.586;2023-09-18T05:19:36;99827.41;;;24.41;27.12
48718;BME280;34521;33.042;-96.586;2023-09-18T05:22:01;99823.51;;;23.80;27.85
48718;BME280;34521;33.042;-96.586;2023-09-18T05:24:26;99823.79;;;21.08;30.69
48718;BME280;34521;33.042;-96.586;2023-09-18T05:26:51;99819.35;;;21.47;30.03
48718;BME280;34521;33.042;-96.586;2023-09-18T05:29:16;99818.13;;;21.97;29.67
48718;BME280;34521;33.042;-96.586;2023-09-18T05:31:41;99815.68;;;22.96;28.43
48718;BME280;34521;33.042;-96.586;2023-09-18T05:34:06;99818.02;;;23.29;27.86
48718;BME280;34521;33.042;-96.586;2023-09-18T05:36:32;99815.71;;;23.80;27.41
48718;BME280;34521;33.042;-96.586;2023-09-18T05:38:56;99818.45;;;23.98;27.27
48718;BME280;34521;33.042;-96.586;2023-09-18T05:41:21;99820.75;;;23.80;27.48
48718;BME280;34521;33.042;-96.586;2023-09-18T05:43:47;99819.10;;;23.91;27.53
48718;BME280;34521;33.042;-96.586;2023-09-18T05:46:12;99821.89;;;24.02;27.50
48718;BME280;34521;33.042;-96.586;2023-09-18T05:48:37;99822.77;;;23.99;27.64
48718;BME280;34521;33.042;-96.586;2023-09-18T05:51:02;99826.32;;;21.27;30.38
48718;BME280;34521;33.042;-96.586;2023-09-18T05:53:26;99823.04;;;21.45;30.02
48718;BME280;34521;33.042;-96.586;2023-09-18T05:55:52;99823.80;;;21.37;29.88
48718;BME280;34521;33.042;-96.586;2023-09-18T05:58:17;99823.41;;;22.37;28.95
48718;BME280;34521;33.042;-96.586;2023-09-18T06:00:42;99817.70;;;23.37;27.93
48718;BME280;34521;33.042;-96.586;2023-09-18T06:03:07;99817.72;;;23.49;27.56
48718;BME280;34521;33.042;-96.586;2023-09-18T06:05:32;99818.19;;;23.50;27.62
48718;BME280;34521;33.042;-96.586;2023-09-18T06:07:57;99818.30;;;23.98;27.22
48718;BME280;34521;33.042;-96.586;2023-09-18T06:10:22;99817.06;;;23.36;27.93
48718;BME280;34521;33.042;-96.586;2023-09-18T06:12:47;99818.50;;;24.14;27.24
48718;BME280;34521;33.042;-96.586;2023-09-18T06:15:12;99819.17;;;24.27;27.10
48718;BME280;34521;33.042;-96.586;2023-09-18T06:17:37;99822.28;;;24.82;26.93
48718;BME280;34521;33.042;-96.586;2023-09-18T06:20:02;99818.48;;;21.39;30.05
48718;BME280;34521;33.042;-96.586;2023-09-18T06:22:27;99825.72;;;20.55;31.20
48718;BME280;34521;33.042;-96.586;2023-09-18T06:24:52;99815.69;;;20.86;30.07
48718;BME280;34521;33.042;-96.586;2023-09-18T06:27:17;99817.22;;;22.04;29.58
48718;BME280;34521;33.042;-96.586;2023-09-18T06:29:42;99813.46;;;22.93;28.31
48718;BME280;34521;33.042;-96.586;2023-09-18T06:32:07;99812.55;;;23.31;27.70
48718;BME280;34521;33.042;-96.586;2023-09-18T06:34:32;99815.90;;;23.12;27.94
48718;BME280;34521;33.042;-96.586;2023-09-18T06:36:57;99814.99;;;23.88;27.23
48718;BME280;34521;33.042;-96.586;2023-09-18T06:39:23;99815.48;;;23.99;27.24
48718;BME280;34521;33.042;-96.586;2023-09-18T06:41:47;99816.81;;;24.33;26.95
48718;BME280;34521;33.042;-96.586;2023-09-18T06:44:12;99818.76;;;24.71;26.61
48718;BME280;34521;33.042;-96.586;2023-09-18T06:46:37;99815.26;;;24.32;27.03
48718;BME280;34521;33.042;-96.586;2023-09-18T06:49:03;99816.32;;;23.90;27.49
48718;BME280;34521;33.042;-96.586;2023-09-18T06:51:28;99812.77;;;24.10;27.32
48718;BME280;34521;33.042;-96.586;2023-09-18T06:53:53;99812.84;;;20.96;31.51
48718;BME280;34521;33.042;-96.586;2023-09-18T06:56:18;99821.98;;;19.90;32.80
48718;BME280;34521;33.042;-96.586;2023-09-18T06:58:43;99813.12;;;20.99;31.17
48718;BME280;34521;33.042;-96.586;2023-09-18T07:01:08;99814.08;;;22.49;29.51
48718;BME280;34521;33.042;-96.586;2023-09-18T07:03:33;99810.61;;;23.33;28.52
48718;BME280;34521;33.042;-96.586;2023-09-18T07:05:58;99808.15;;;23.61;28.03
48718;BME280;34521;33.042;-96.586;2023-09-18T07:08:23;99809.28;;;24.28;27.13
48718;BME280;34521;33.042;-96.586;2023-09-18T07:10:50;99807.63;;;23.99;27.46
48718;BME280;34521;33.042;-96.586;2023-09-18T07:13:13;99804.69;;;24.38;27.35
48718;BME280;34521;33.042;-96.586;2023-09-18T07:15:38;99804.00;;;24.31;27.20
48718;BME280;34521;33.042;-96.586;2023-09-18T07:18:04;99801.75;;;24.27;27.28
48718;BME280;34521;33.042;-96.586;2023-09-18T07:20:28;99802.08;;;24.53;27.11
48718;BME280;34521;33.042;-96.586;2023-09-18T07:22:53;99798.82;;;24.86;26.77
48718;BME280;34521;33.042;-96.586;2023-09-18T07:25:18;99798.64;;;24.46;27.23
48718;BME280;34521;33.042;-96.586;2023-09-18T07:27:43;99803.27;;;20.06;31.65
48718;BME280;34521;33.042;-96.586;2023-09-18T07:30:09;99805.34;;;19.20;32.70
48718;BME280;34521;33.042;-96.586;2023-09-18T07:32:33;99803.16;;;20.43;31.82
48718;BME280;34521;33.042;-96.586;2023-09-18T07:34:58;99794.01;;;22.56;29.21
48718;BME280;34521;33.042;-96.586;2023-09-18T07:37:23;99788.28;;;23.46;27.97
48718;BME280;34521;33.042;-96.586;2023-09-18T07:39:49;99790.70;;;24.02;27.69
48718;BME280;34521;33.042;-96.586;2023-09-18T07:42:13;99785.70;;;23.97;27.31
48718;BME280;34521;33.042;-96.586;2023-09-18T07:44:38;99787.70;;;24.09;27.22
48718;BME280;34521;33.042;-96.586;2023-09-18T07:47:04;99785.99;;;23.99;27.32
48718;BME280;34521;33.042;-96.586;2023-09-18T07:49:29;99785.87;;;21.40;31.64
48718;BME280;34521;33.042;-96.586;2023-09-18T07:51:53;99784.44;;;20.68;34.19
48718;BME280;34521;33.042;-96.586;2023-09-18T07:54:18;99791.64;;;20.06;35.88
48718;BME280;34521;33.042;-96.586;2023-09-18T07:56:45;99782.75;;;22.81;31.81
48718;BME280;34521;33.042;-96.586;2023-09-18T07:59:09;99778.86;;;23.39;30.95
48718;BME280;34521;33.042;-96.586;2023-09-18T08:01:34;99780.07;;;23.78;30.02
48718;BME280;34521;33.042;-96.586;2023-09-18T08:03:59;99776.70;;;23.59;29.83
48718;BME280;34521;33.042;-96.586;2023-09-18T08:06:25;99777.31;;;24.54;28.93
48718;BME280;34521;33.042;-96.586;2023-09-18T08:08:50;99777.33;;;21.98;30.46
48718;BME280;34521;33.042;-96.586;2023-09-18T08:11:14;99782.72;;;19.59;33.70
48718;BME280;34521;33.042;-96.586;2023-09-18T08:13:39;99783.70;;;19.25;33.83
48718;BME280;34521;33.042;-96.586;2023-09-18T08:16:06;99776.43;;;20.69;32.83
48718;BME280;34521;33.042;-96.586;2023-09-18T08:18:29;99772.66;;;22.94;29.78
48718;BME280;34521;33.042;-96.586;2023-09-18T08:20:54;99776.92;;;22.92;29.56
48718;BME280;34521;33.042;-96.586;2023-09-18T08:23:19;99777.53;;;24.12;28.25
48718;BME280;34521;33.042;-96.586;2023-09-18T08:25:44;99778.72;;;24.06;28.08
48718;BME280;34521;33.042;-96.586;2023-09-18T08:28:09;99778.25;;;23.97;27.93
48718;BME280;34521;33.042;-96.586;2023-09-18T08:30:34;99776.81;;;23.87;28.11
48718;BME280;34521;33.042;-96.586;2023-09-18T08:32:59;99774.63;;;24.24;28.00
48718;BME280;34521;33.042;-96.586;2023-09-18T08:35:25;99774.69;;;24.17;27.84
48718;BME280;34521;33.042;-96.586;2023-09-18T08:37:49;99777.08;;;24.43;27.60
48718;BME280;34521;33.042;-96.586;2023-09-18T08:40:14;99779.38;;;24.22;27.82
48718;BME280;34521;33.042;-96.586;2023-09-18T08:42:45;99779.77;;;21.59;30.40
48718;BME280;34521;33.042;-96.586;2023-09-18T08:45:07;99783.15;;;19.37;33.36
48718;BME280;34521;33.042;-96.586;2023-09-18T08:47:30;99779.98;;;18.61;34.59
48718;BME280;34521;33.042;-96.586;2023-09-18T08:49:55;99775.82;;;21.21;31.77
48718;BME280;34521;33.042;-96.586;2023-09-18T08:52:21;99780.40;;;20.18;33.27
48718;BME280;34521;33.042;-96.586;2023-09-18T08:54:46;99776.35;;;21.68;32.16
48718;BME280;34521;33.042;-96.586;2023-09-18T08:57:10;99774.62;;;23.11;29.81
48718;BME280;34521;33.042;-96.586;2023-09-18T08:59:36;99767.93;;;23.48;29.29
48718;BME280;34521;33.042;-96.586;2023-09-18T09:02:00;99770.32;;;23.99;28.43
48718;BME280;34521;33.042;-96.586;2023-09-18T09:04:25;99768.85;;;23.79;28.59
48718;BME280;34521;33.042;-96.586;2023-09-18T09:06:50;99768.58;;;24.33;27.98
48718;BME280;34521;33.042;-96.586;2023-09-18T09:09:15;99771.21;;;23.91;27.98
48718;BME280;34521;33.042;-96.586;2023-09-18T09:11:40;99774.16;;;24.21;27.91
48718;BME280;34521;33.042;-96.586;2023-09-18T09:14:12;99779.39;;;24.09;27.98
48718;BME280;34521;33.042;-96.586;2023-09-18T09:16:30;99776.85;;;24.13;27.94
48718;BME280;34521;33.042;-96.586;2023-09-18T09:18:55;99774.82;;;24.42;27.67
48718;BME280;34521;33.042;-96.586;2023-09-18T09:21:20;99769.89;;;23.95;28.10
48718;BME280;34521;33.042;-96.586;2023-09-18T09:23:46;99771.13;;;24.20;27.83
48718;BME280;34521;33.042;-96.586;2023-09-18T09:26:15;99780.09;;;19.62;32.92
48718;BME280;34521;33.042;-96.586;2023-09-18T09:28:35;99775.39;;;18.10;34.78
48718;BME280;34521;33.042;-96.586;2023-09-18T09:31:02;99778.76;;;20.65;32.52
48718;BME280;34521;33.042;-96.586;2023-09-18T09:33:26;99771.40;;;22.25;29.99
48718;BME280;34521;33.042;-96.586;2023-09-18T09:35:50;99766.04;;;23.39;28.49
48718;BME280;34521;33.042;-96.586;2023-09-18T09:38:16;99770.96;;;23.78;28.11
48718;BME280;34521;33.042;-96.586;2023-09-18T09:40:42;99770.62;;;23.93;27.97
48718;BME280;34521;33.042;-96.586;2023-09-18T09:43:10;99771.91;;;24.24;27.65
48718;BME280;34521;33.042;-96.586;2023-09-18T09:45:31;99773.97;;;24.17;27.27
48718;BME280;34521;33.042;-96.586;2023-09-18T09:47:57;99771.22;;;22.74;29.48
48718;BME280;34521;33.042;-96.586;2023-09-18T09:50:21;99783.18;;;19.43;35.90
48718;BME280;34521;33.042;-96.586;2023-09-18T09:52:48;99782.50;;;20.02;36.52
48718;BME280;34521;33.042;-96.586;2023-09-18T09:55:21;99777.93;;;22.83;31.71
48718;BME280;34521;33.042;-96.586;2023-09-18T09:57:46;99775.04;;;23.57;30.28
48718;BME280;34521;33.042;-96.586;2023-09-18T10:00:05;99776.69;;;23.70;29.99
48718;BME280;34521;33.042;-96.586;2023-09-18T10:02:26;99779.14;;;24.53;28.96
48718;BME280;34521;33.042;-96.586;2023-09-18T10:04:51;99776.98;;;24.35;28.53
48718;BME280;34521;33.042;-96.586;2023-09-18T10:07:17;99778.63;;;24.27;28.84
48718;BME280;34521;33.042;-96.586;2023-09-18T10:09:42;99779.07;;;24.37;28.38
48718;BME280;34521;33.042;-96.586;2023-09-18T10:12:11;99781.03;;;24.60;28.10
48718;BME280;34521;33.042;-96.586;2023-09-18T10:14:32;99781.61;;;24.06;28.58
48718;BME280;34521;33.042;-96.586;2023-09-18T10:16:59;99784.19;;;21.70;30.76
48718;BME280;34521;33.042;-96.586;2023-09-18T10:19:28;99793.05;;;18.71;34.35
48718;BME280;34521;33.042;-96.586;2023-09-18T10:21:53;99793.52;;;18.28;36.05
48718;BME280;34521;33.042;-96.586;2023-09-18T10:24:17;99788.60;;;21.18;31.92
48718;BME280;34521;33.042;-96.586;2023-09-18T10:26:42;99789.05;;;22.73;29.94
48718;BME280;34521;33.042;-96.586;2023-09-18T10:29:03;99785.85;;;23.04;29.42
48718;BME280;34521;33.042;-96.586;2023-09-18T10:31:27;99788.43;;;23.79;28.41
48718;BME280;34521;33.042;-96.586;2023-09-18T10:33:53;99791.72;;;24.31;27.61
48718;BME280;34521;33.042;-96.586;2023-09-18T10:36:18;99791.68;;;23.92;27.78
48718;BME280;34521;33.042;-96.586;2023-09-18T10:38:42;99793.86;;;24.39;27.62
48718;BME280;34521;33.042;-96.586;2023-09-18T10:41:07;99796.42;;;23.96;27.78
48718;BME280;34521;33.042;-96.586;2023-09-18T10:43:32;99798.52;;;22.00;30.49
48718;BME280;34521;33.042;-96.586;2023-09-18T10:45:57;99806.37;;;19.23;36.40
48718;BME280;34521;33.042;-96.586;2023-09-18T10:48:23;99804.04;;;19.28;37.80
48718;BME280;34521;33.042;-96.586;2023-09-18T10:50:47;99805.02;;;18.93;38.80
48718;BME280;34521;33.042;-96.586;2023-09-18T10:53:12;99797.85;;;21.59;34.53
48718;BME280;34521;33.042;-96.586;2023-09-18T10:55:37;99800.15;;;22.35;32.51
48718;BME280;34521;33.042;-96.586;2023-09-18T10:58:02;99797.60;;;23.77;30.67
48718;BME280;34521;33.042;-96.586;2023-09-18T11:00:28;99801.76;;;23.84;30.07
48718;BME280;34521;33.042;-96.586;2023-09-18T11:02:53;99802.98;;;23.90;29.94
48718;BME280;34521;33.042;-96.586;2023-09-18T11:07:43;99809.01;;;24.14;29.17
48718;BME280;34521;33.042;-96.586;2023-09-18T11:12:42;99816.27;;;24.07;29.05
48718;BME280;34521;33.042;-96.586;2023-09-18T11:14:58;99815.12;;;24.56;28.75
48718;BME280;34521;33.042;-96.586;2023-09-18T11:17:33;99815.30;;;24.53;28.71
48718;BME280;34521;33.042;-96.586;2023-09-18T11:19:47;99813.98;;;24.29;28.68
48718;BME280;34521;33.042;-96.586;2023-09-18T11:22:13;99820.59;;;24.03;28.96
48718;BME280;34521;33.042;-96.586;2023-09-18T11:24:38;99822.47;;;23.13;29.72
48718;BME280;34521;33.042;-96.586;2023-09-18T11:27:03;99829.53;;;18.61;35.10
48718;BME280;34521;33.042;-96.586;2023-09-18T11:29:28;99830.04;;;18.59;36.63
48718;BME280;34521;33.042;-96.586;2023-09-18T11:31:54;99829.37;;;21.56;32.00
48718;BME280;34521;33.042;-96.586;2023-09-18T11:34:22;99829.92;;;22.93;30.36
48718;BME280;34521;33.042;-96.586;2023-09-18T11:36:43;99829.24;;;23.43;29.30
48718;BME280;34521;33.042;-96.586;2023-09-18T11:39:08;99831.57;;;23.83;28.82
48718;BME280;34521;33.042;-96.586;2023-09-18T11:41:34;99828.88;;;23.89;28.76
48718;BME280;34521;33.042;-96.586;2023-09-18T11:46:23;99841.10;;;18.91;37.81
48718;BME280;34521;33.042;-96.586;2023-09-18T11:48:49;99843.93;;;19.11;38.69
48718;BME280;34521;33.042;-96.586;2023-09-18T11:51:13;99854.60;;;20.37;36.35
48718;BME280;34521;33.042;-96.586;2023-09-18T11:53:39;99851.41;;;22.12;33.34
48718;BME280;34521;33.042;-96.586;2023-09-18T11:56:04;99847.58;;;23.48;31.35
48718;BME280;34521;33.042;-96.586;2023-09-18T11:58:28;99846.05;;;23.88;30.46
48718;BME280;34521;33.042;-96.586;2023-09-18T12:00:54;99846.59;;;24.07;30.06
48718;BME280;34521;33.042;-96.586;2023-09-18T12:03:20;99850.02;;;23.65;30.21
48718;BME280;34521;33.042;-96.586;2023-09-18T12:05:44;99846.89;;;23.83;29.69
48718;BME280;34521;33.042;-96.586;2023-09-18T12:08:08;99851.23;;;23.84;29.59
48718;BME280;34521;33.042;-96.586;2023-09-18T12:10:34;99855.62;;;21.14;32.56
48718;BME280;34521;33.042;-96.586;2023-09-18T12:12:58;99866.45;;;18.33;36.42
48718;BME280;34521;33.042;-96.586;2023-09-18T12:15:24;99868.87;;;18.44;37.54
48718;BME280;34521;33.042;-96.586;2023-09-18T12:17:49;99871.62;;;20.80;33.85
48718;BME280;34521;33.042;-96.586;2023-09-18T12:20:17;99865.38;;;22.51;31.38
48718;BME280;34521;33.042;-96.586;2023-09-18T12:22:39;99862.47;;;23.24;29.70
48718;BME280;34521;33.042;-96.586;2023-09-18T12:25:10;99864.21;;;23.47;29.42
48718;BME280;34521;33.042;-96.586;2023-09-18T12:27:30;99865.12;;;24.03;28.85
48718;BME280;34521;33.042;-96.586;2023-09-18T12:29:54;99866.61;;;23.64;29.25
48718;BME280;34521;33.042;-96.586;2023-09-18T12:32:19;99871.42;;;23.72;29.16
48718;BME280;34521;33.042;-96.586;2023-09-18T12:34:44;99873.62;;;23.69;29.01